• Join FlightAware (Why Join?)
  • Login
  • US Flag 
12:10AM EDT


 

Airport Tracker/Info


-or-


 

Live Flight TrackerFlight Track Log ✈ N920AC ✈ 04-Nov-2013 ✈ KORL - KAPF

Flight Track Log - Related Links

Times and Time Zones

All times are in EST time to prevent confusion due to time zone crossing. See the N920AC flight status page for this flight to view local times or setup timezone preferences in your user account.

Time Position Orientation Groundspeed Altitude Reporting Facility
EST Latitude Longitude Course Direction KTS MPH feet Rate Location/Type
08:56PM 28.5500 -81.3167 270° West 67 77 500  Level Orlando TRACON
08:57PM 28.5500 -81.3500 270° West 124 143 1,100 360 Climbing Orlando TRACON
08:58PM 28.5333 -81.3833 240° Southwest 115 132 1,500 480 Climbing Orlando TRACON
08:59PM 28.5167 -81.4167 240° Southwest 117 135 2,300 600 Climbing Orlando TRACON
09:00PM 28.5000 -81.4500 240° Southwest 110 127 2,900 360 Climbing Orlando TRACON
09:01PM 28.4833 -81.4500 180° South 118 136 3,000  Climbing Orlando TRACON
09:02PM 28.4333 -81.4667 196° South 118 136 3,000  Level Orlando TRACON
09:03PM 28.4167 -81.4667 180° South 118 136 3,000 -120 Level Orlando TRACON
09:04PM 28.3833 -81.4667 180° South 113 130 2,900  Descending Orlando TRACON
09:05PM 28.3500 -81.4667 180° South 112 129 3,000  Climbing Orlando TRACON
09:06PM 28.3167 -81.4667 180° South 112 129 3,000  Level Orlando TRACON
09:07PM 28.2833 -81.4667 180° South 116 133 3,000  Level Orlando TRACON
09:08PM 28.2500 -81.4833 204° Southwest 116 133 3,000  Level Orlando TRACON
09:09PM 28.2167 -81.4833 180° South 122 140 3,000 -60 Level Orlando TRACON
09:10PM 28.1833 -81.5000 204° Southwest 121 139 2,900 -60 Descending Orlando TRACON
09:11PM 28.1667 -81.5000 180° South 118 136 2,900  Level Orlando TRACON
09:12PM 28.1333 -81.5000 180° South 113 130 2,900  Level Orlando TRACON
09:13PM 28.0833 -81.5089 189° South 121 139 2,900  Level Miami Center
09:14PM 28.0519 -81.5125 186° South 121 139 3,000  Climbing Miami Center
09:15PM 28.0206 -81.5183 189° South 121 139 3,000  Level Miami Center
09:16PM 27.9892 -81.5192 181° South 121 139 3,000  Level Miami Center
09:17PM 27.9558 -81.5225 185° South 121 139 3,000  Level Miami Center
09:18PM 27.9222 -81.5283 189° South 121 139 3,000  Level Miami Center
09:19PM 27.8906 -81.5342 189° South 121 139 3,000  Level Miami Center
09:20PM 27.8572 -81.5397 188° South 121 139 3,000  Level Miami Center
09:21PM 27.8256 -81.5453 189° South 121 139 3,000  Level Miami Center
09:22PM 27.7922 -81.5486 185° South 121 139 3,000  Level Miami Center
09:23PM 27.7628 -81.5500 182° South 121 139 3,000  Level Miami Center
09:24PM 27.7314 -81.5533 185° South 121 139 3,000  Level Miami Center
09:25PM 27.6978 -81.5589 188° South 121 139 3,000  Level Miami Center
09:26PM 27.6642 -81.5647 189° South 121 139 3,000  Level Miami Center
09:27PM 27.6308 -81.5681 185° South 121 139 3,000  Level Miami Center
09:28PM 27.5975 -81.5689 181° South 121 139 3,000  Level Miami Center
09:29PM 27.5639 -81.5744 188° South 121 139 3,100  Climbing Miami Center
09:30PM 27.5281 -81.5800 188° South 121 139 3,000 -60 Descending Miami Center
09:31PM 27.4944 -81.5881 192° South 121 139 3,000  Level Miami Center
09:32PM 27.4608 -81.5936 188° South 121 139 3,000  Level Miami Center
09:33PM 27.4250 -81.6039 194° South 126 145 3,000  Level Miami Center
09:34PM 27.3914 -81.6094 188° South 126 145 3,000  Level Miami Center
09:35PM 27.3600 -81.6128 185° South 126 145 3,000  Level Miami Center
09:36PM 27.3244 -81.6161 185° South 126 145 3,000  Level Miami Center
09:37PM 27.2972 -81.6219 191° South 126 145 3,000  Level Miami Center
09:38PM 27.2636 -81.6253 185° South 126 145 3,000  Level Miami Center
09:39PM 27.2300 -81.6333 192° South 126 145 3,000  Level Miami Center
09:40PM 27.1967 -81.6342 181° South 126 145 3,000  Level Miami Center
09:41PM 27.1631 -81.6422 192° South 126 145 3,000 -60 Level Miami Center
09:42PM 27.1294 -81.6478 188° South 126 145 2,900  Descending Miami Center
09:43PM 27.0958 -81.6533 188° South 126 145 3,000  Climbing Miami Center
09:44PM 27.0644 -81.6544 182° South 126 145 3,000  Level Miami Center
09:45PM 27.0311 -81.6553 181° South 126 145 3,100  Climbing Miami Center
09:46PM 26.9911 -81.6583 184° South 126 145 3,100 -60 Level Miami Center
09:47PM 26.9556 -81.6617 185° South 126 145 3,000 -60 Descending Miami Center
09:48PM 26.9219 -81.6672 188° South 126 145 3,000  Level Miami Center
09:50PM 26.8848 -81.6671 180° South  Level FlightAware Approximate
09:57PM 26.6587 -81.6681 189° South  Level FlightAware Approximate
09:58PM 26.6268 -81.6739 189° South  Level FlightAware Approximate
09:59PM 26.5950 -81.6797 189° South  Level FlightAware Approximate
10:00PM 26.5631 -81.6855 189° South  Level FlightAware Approximate
10:01PM 26.5313 -81.6913 189° South  Level FlightAware Approximate
10:02PM 26.4994 -81.6971 189° South  Level FlightAware Approximate
10:03PM 26.4676 -81.7029 189° South  Level FlightAware Approximate
10:04PM 26.4357 -81.7087 189° South  Level FlightAware Approximate
10:05PM 26.4039 -81.7145 189° South  Level FlightAware Approximate
10:06PM 26.3720 -81.7203 189° South  Level FlightAware Approximate
10:07PM 26.3402 -81.7261 189° South  Level FlightAware Approximate
10:08PM 26.3083 -81.7318 189° South  Level FlightAware Approximate
10:09PM 26.2768 -81.7391 193° South  Level FlightAware Approximate
10:10PM 26.2453 -81.7470 193° South  Level FlightAware Approximate
10:11PM 26.2136 -81.7539 190° South  Level FlightAware Approximate
10:12PM 26.1819 -81.7603 190° South  Level FlightAware Approximate